Accueil
METAR-TAF:

METAR-TAF

Aéroports :

Decimomannu, Italie

latitude: 39-21N, longitude: 008-58E, altitude: 29 m

Observation

Le bulletin a été fait il y a 49 minutes, à 18:55 UTC
Vent 5 kt de sud/sud-est
Température 14°C
Humidité 88%
Pression 1013 hPa
Visibilité 10 km ou plus
Quelques nuages à une hauteur de 2000 ft

METAR: LIED 311855Z 15005KT 9999 FEW020 14/12 Q1013 RMK BKN BKN100 VIS MIN 9999 WIND THR35 15005KT WIND THR17 /////KT BLU

Heure: 21:44 (19:44 UTC)

Prévision

Le bulletin a été fait il y a 2 heures et 44 minutes, à 17:00 UTC
Prévision valable du 31 à 18 UTC au 01 à 03 UTC
Vent 10 kt de sud-est
Visibilité 10 km ou plus
Nuages épars à une hauteur de 2000 ft
Temporairement
du 31 à 20 UTC au 01 à 03 UTC
Visibilité: 5000 m
Nuages épars à une hauteur de 1800 ft
pluie

TAF: LIED 311700Z 3118/0103 13010KT 9999 SCT020 TEMPO 3120/0103 5000 RA SCT018

Observations et prévisions météorologiques de plus de 4000 aéroports (messages METAR et TAF).

Les stations disponibles sont représentées par des disques jaunes et rouges sur la carte.

Passer la souris dessus pour voir le nom de la station.

Cliquer dessus pour voir les observations et prévisions météorologiques.

Pour changer de carte: cliquez sur les boutons verts avec une croix noire pour zoomer, sur le bouton vert avec un tiret pour effectuer un zoom arrière, ou sur les flèches vertes pour les cartes adjacentes.


METAR-TAF: